createdAt,value
2022-12-17T00:00:46.811Z,-5.41
2022-12-17T00:01:46.509Z,-5.47
2022-12-17T00:02:46.991Z,-5.45
2022-12-17T00:03:47.853Z,-5.38
2022-12-17T00:04:46.464Z,-5.52
2022-12-17T00:05:46.181Z,-5.45
2022-12-17T00:06:46.385Z,-5.44
2022-12-17T00:07:46.099Z,-5.48
2022-12-17T00:08:46.082Z,-5.52
2022-12-17T00:09:52.970Z,-5.51
2022-12-17T00:10:46.031Z,-5.48
2022-12-17T00:11:45.755Z,-5.48
2022-12-17T00:12:46.245Z,-5.44
2022-12-17T00:13:45.728Z,-5.48
2022-12-17T00:14:46.209Z,-5.47
2022-12-17T00:15:46.333Z,-5.5
2022-12-17T00:16:46.020Z,-5.51
2022-12-17T00:17:45.625Z,-5.5
2022-12-17T00:18:45.601Z,-5.5
2022-12-17T00:19:46.147Z,-5.51
2022-12-17T00:20:46.081Z,-5.4
2022-12-17T00:21:46.049Z,-5.38
2022-12-17T00:22:45.505Z,-5.37
2022-12-17T00:23:45.744Z,-5.41
2022-12-17T00:24:45.713Z,-5.47
2022-12-17T00:25:47.970Z,-5.4
2022-12-17T00:26:45.674Z,-5.38
2022-12-17T00:27:45.656Z,-5.42
2022-12-17T00:28:45.376Z,-5.4
2022-12-17T00:29:45.874Z,-5.5
2022-12-17T00:30:45.324Z,-5.37
2022-12-17T00:31:45.618Z,-5.41
2022-12-17T00:32:45.532Z,-5.41
2022-12-17T00:33:45.268Z,-5.44
2022-12-17T00:34:45.784Z,-5.37
2022-12-17T00:35:45.771Z,-5.33
2022-12-17T00:36:45.576Z,-5.42
2022-12-17T00:37:45.419Z,-5.37
2022-12-17T00:38:45.397Z,-5.45
2022-12-17T00:39:45.129Z,-5.33
2022-12-17T00:40:45.358Z,-5.41
2022-12-17T00:41:45.072Z,-5.48
2022-12-17T00:42:45.311Z,-5.44
2022-12-17T00:43:45.544Z,-5.4
2022-12-17T00:44:45.009Z,-5.37
2022-12-17T00:45:44.987Z,-5.27
2022-12-17T00:46:45.494Z,-5.38
2022-12-17T00:47:45.199Z,-5.42
2022-12-17T00:48:45.442Z,-5.29
2022-12-17T00:49:44.892Z,-5.29
2022-12-17T00:50:45.127Z,-5.26
2022-12-17T00:51:45.144Z,-5.29
2022-12-17T00:52:45.367Z,-5.23
2022-12-17T00:53:45.323Z,-5.27
2022-12-17T00:54:45.043Z,-5.23
2022-12-17T00:55:45.015Z,-5.27
2022-12-17T00:56:45.246Z,-5.33
2022-12-17T00:57:45.234Z,-5.35
2022-12-17T00:58:44.950Z,-5.4
2022-12-17T00:59:45.175Z,-5.35
2022-12-17T01:00:45.475Z,-5.38
2022-12-17T01:01:46.075Z,-5.4
2022-12-17T01:02:45.763Z,-5.41
2022-12-17T01:03:44.832Z,-5.38
2022-12-17T01:04:45.068Z,-5.4
2022-12-17T01:05:45.036Z,-5.4
2022-12-17T01:06:44.514Z,-5.41
2022-12-17T01:07:44.792Z,-5.29
2022-12-17T01:08:45.002Z,-5.37
2022-12-17T01:09:44.688Z,-5.29
2022-12-17T01:10:44.932Z,-5.37
2022-12-17T01:11:44.654Z,-5.45
2022-12-17T01:12:44.631Z,-5.37
2022-12-17T01:13:44.611Z,-5.31
2022-12-17T01:14:44.850Z,-5.35
2022-12-17T01:15:44.333Z,-5.4
2022-12-17T01:16:44.751Z,-5.29
2022-12-17T01:17:44.263Z,-5.29
2022-12-17T01:18:44.504Z,-5.29
2022-12-17T01:19:44.740Z,-5.22
2022-12-17T01:20:44.715Z,-5.29
2022-12-17T01:21:44.426Z,-5.3
2022-12-17T01:22:44.150Z,-5.33
2022-12-17T01:23:44.581Z,-5.29
2022-12-17T01:24:44.391Z,-5.26
2022-12-17T01:25:44.579Z,-5.27
2022-12-17T01:26:44.311Z,-5.3
2022-12-17T01:27:44.547Z,-5.24
2022-12-17T01:28:44.543Z,-5.38
2022-12-17T01:29:44.495Z,-5.27
2022-12-17T01:30:43.987Z,-5.33
2022-12-17T01:31:44.063Z,-5.3
2022-12-17T01:32:44.426Z,-5.27
2022-12-17T01:33:44.537Z,-5.35
2022-12-17T01:34:43.890Z,-5.26
2022-12-17T01:35:43.871Z,-5.31
2022-12-17T01:36:44.341Z,-5.29
2022-12-17T01:37:44.326Z,-5.33
2022-12-17T01:38:44.045Z,-5.33
2022-12-17T01:39:44.488Z,-5.38
2022-12-17T01:40:44.314Z,-5.27
2022-12-17T01:41:43.964Z,-5.29
2022-12-17T01:42:43.946Z,-5.42
2022-12-17T01:43:44.185Z,-5.29
2022-12-17T01:44:43.906Z,-5.3
2022-12-17T01:45:44.117Z,-5.33
2022-12-17T01:46:43.682Z,-5.29
2022-12-17T01:47:44.095Z,-5.26
2022-12-17T01:48:43.813Z,-5.33
2022-12-17T01:49:43.781Z,-5.33
2022-12-17T01:50:44.015Z,-5.4
2022-12-17T01:51:43.998Z,-5.24
2022-12-17T01:52:44.230Z,-5.3
2022-12-17T01:53:44.363Z,-5.29
2022-12-17T01:54:43.918Z,-5.37
2022-12-17T01:55:44.224Z,-5.35
2022-12-17T01:56:44.176Z,-5.4
2022-12-17T01:57:43.858Z,-5.31
2022-12-17T01:58:44.095Z,-5.3
2022-12-17T01:59:44.072Z,-5.29
2022-12-17T02:00:43.651Z,-5.35
2022-12-17T02:01:44.710Z,-5.35
2022-12-17T02:02:44.196Z,-5.27
2022-12-17T02:03:44.350Z,-5.3
2022-12-17T02:04:43.446Z,-5.23
2022-12-17T02:05:43.678Z,-5.24
2022-12-17T02:06:43.904Z,-5.27
2022-12-17T02:07:43.725Z,-5.24
2022-12-17T02:08:43.604Z,-5.3
2022-12-17T02:09:43.843Z,-5.29
2022-12-17T02:10:43.818Z,-5.3
2022-12-17T02:11:43.651Z,-5.26
2022-12-17T02:12:43.799Z,-5.26
2022-12-17T02:13:43.995Z,-5.23
2022-12-17T02:14:43.732Z,-5.26
2022-12-17T02:15:43.707Z,-5.3
2022-12-17T02:16:43.847Z,-5.24
2022-12-17T02:17:43.658Z,-5.23
2022-12-17T02:18:43.119Z,-5.19
2022-12-17T02:19:43.352Z,-5.2
2022-12-17T02:20:43.083Z,-5.17
2022-12-17T02:21:43.566Z,-5.23
2022-12-17T02:22:43.286Z,-5.23
2022-12-17T02:23:43.839Z,-5.17
2022-12-17T02:24:43.247Z,-5.23
2022-12-17T02:25:43.466Z,-5.23
2022-12-17T02:26:43.445Z,-5.12
2022-12-17T02:27:43.216Z,-5.19
2022-12-17T02:28:43.428Z,-5.14
2022-12-17T02:29:43.131Z,-5.23
2022-12-17T02:30:42.842Z,-5.26
2022-12-17T02:31:43.352Z,-5.19
2022-12-17T02:32:43.058Z,-5.2
2022-12-17T02:33:43.240Z,-5.2
2022-12-17T02:34:43.016Z,-5.23
2022-12-17T02:35:42.993Z,-5.17
2022-12-17T02:36:42.979Z,-5.17
2022-12-17T02:37:42.694Z,-5.1
2022-12-17T02:38:43.176Z,-5.12
2022-12-17T02:39:43.159Z,-5.2
2022-12-17T02:40:42.881Z,-5.2
2022-12-17T02:41:43.132Z,-5.23
2022-12-17T02:42:42.569Z,-5.22
2022-12-17T02:43:43.421Z,-5.08
2022-12-17T02:44:43.071Z,-5.12
2022-12-17T02:45:42.905Z,-5.17
2022-12-17T02:46:42.996Z,-5.05
2022-12-17T02:47:42.718Z,-5.11
2022-12-17T02:48:42.953Z,-5.04
2022-12-17T02:49:42.932Z,-5.12
2022-12-17T02:50:42.909Z,-5.12
2022-12-17T02:51:42.876Z,-5.1
2022-12-17T02:52:42.602Z,-5.05
2022-12-17T02:53:42.716Z,-5.12
2022-12-17T02:54:42.557Z,-5.07
2022-12-17T02:55:42.785Z,-5.12
2022-12-17T02:56:42.512Z,-5.1
2022-12-17T02:57:54.004Z,-5.05
2022-12-17T02:58:42.762Z,-5.12
2022-12-17T02:59:42.763Z,-5.12
2022-12-17T03:00:42.752Z,-5.08
2022-12-17T03:01:43.156Z,-5.1
2022-12-17T03:02:43.077Z,-5.04
2022-12-17T03:03:50.042Z,-5.04
2022-12-17T03:04:43.226Z,-5.05
2022-12-17T03:05:50.650Z,-5.01
2022-12-17T03:06:42.934Z,-5
2022-12-17T03:07:42.911Z,-5.01
2022-12-17T03:08:42.628Z,-5.07
2022-12-17T03:09:42.868Z,-5.02
2022-12-17T03:10:43.094Z,-5.05
2022-12-17T03:11:42.810Z,-5.04
2022-12-17T03:12:42.797Z,-5.02
2022-12-17T03:13:43.573Z,-5.02
2022-12-17T03:14:42.747Z,-5.02
2022-12-17T03:15:43.124Z,-4.93
2022-12-17T03:16:43.117Z,-4.93
2022-12-17T03:17:42.685Z,-4.94
2022-12-17T03:18:42.664Z,-4.93
2022-12-17T03:19:42.370Z,-4.92
2022-12-17T03:20:42.864Z,-4.98
2022-12-17T03:21:42.841Z,-4.93
2022-12-17T03:22:42.559Z,-4.93
2022-12-17T03:23:43.155Z,-4.89
2022-12-17T03:24:42.517Z,-4.89
2022-12-17T03:25:42.760Z,-4.9
2022-12-17T03:26:42.485Z,-4.84
2022-12-17T03:27:42.469Z,-4.89
2022-12-17T03:28:42.429Z,-4.84
2022-12-17T03:29:42.406Z,-4.9
2022-12-17T03:30:50.965Z,-4.89
2022-12-17T03:31:42.719Z,-4.93
2022-12-17T03:32:42.364Z,-4.9
2022-12-17T03:50:11.775Z,-4.87
2022-12-17T03:51:11.428Z,-4.93
2022-12-17T03:52:11.641Z,-4.92
2022-12-17T03:53:11.374Z,-4.89
2022-12-17T03:54:11.371Z,-4.86
2022-12-17T03:55:11.316Z,-4.83
2022-12-17T03:56:11.297Z,-4.9
2022-12-17T03:57:18.883Z,-4.89
2022-12-17T03:58:11.490Z,-4.87
2022-12-17T03:59:11.464Z,-4.84
2022-12-17T04:00:11.195Z,-4.82
2022-12-17T04:01:11.415Z,-4.92
2022-12-17T04:02:11.525Z,-4.93
2022-12-17T04:03:10.972Z,-4.82
2022-12-17T04:04:11.101Z,-4.8
2022-12-17T04:05:13.906Z,-4.87
2022-12-17T04:06:11.384Z,-4.92
2022-12-17T04:07:11.291Z,-4.82
2022-12-17T04:08:11.262Z,-4.87
2022-12-17T04:09:10.987Z,-4.87
2022-12-17T04:10:11.232Z,-4.75
2022-12-17T04:11:10.937Z,-4.79
2022-12-17T04:12:10.938Z,-4.8
2022-12-17T04:13:10.898Z,-4.73
2022-12-17T04:14:10.868Z,-4.73
2022-12-17T04:15:11.107Z,-4.73
2022-12-17T04:16:11.313Z,-4.75
2022-12-17T04:17:10.562Z,-4.75
2022-12-17T04:18:10.781Z,-4.71
2022-12-17T04:19:11.013Z,-4.73
2022-12-17T04:20:10.493Z,-4.69
2022-12-17T04:21:10.986Z,-4.72
2022-12-17T04:22:11.021Z,-4.63
2022-12-17T04:23:10.674Z,-4.62
2022-12-17T04:24:10.649Z,-4.59
2022-12-17T04:25:10.881Z,-4.59
2022-12-17T04:26:10.603Z,-4.65
2022-12-17T04:27:10.583Z,-4.55
2022-12-17T04:28:10.299Z,-4.63
2022-12-17T04:29:10.799Z,-4.65
2022-12-17T04:30:10.251Z,-4.55
2022-12-17T04:31:10.787Z,-4.63
2022-12-17T04:32:10.473Z,-4.63
2022-12-17T04:33:10.696Z,-4.66
2022-12-17T04:34:10.961Z,-4.51
2022-12-17T04:35:11.193Z,-4.63
2022-12-17T04:36:11.181Z,-4.59
2022-12-17T04:37:10.914Z,-4.59
2022-12-17T04:38:11.679Z,-4.51
2022-12-17T04:39:10.851Z,-4.54
2022-12-17T04:40:11.344Z,-4.59
2022-12-17T04:41:11.318Z,-4.51
2022-12-17T04:42:11.298Z,-4.54
2022-12-17T04:43:11.264Z,-4.54
2022-12-17T04:44:10.992Z,-4.59
2022-12-17T04:45:11.227Z,-4.44
2022-12-17T04:46:11.218Z,-4.53
2022-12-17T04:47:10.951Z,-4.54
2022-12-17T04:48:11.164Z,-4.51
2022-12-17T04:49:11.139Z,-4.48
2022-12-17T04:50:10.611Z,-4.45
2022-12-17T04:51:11.095Z,-4.43
2022-12-17T04:52:11.078Z,-4.44
2022-12-17T04:53:11.056Z,-4.43
2022-12-17T04:54:11.105Z,-4.5
2022-12-17T04:55:10.751Z,-4.37
2022-12-17T04:56:10.723Z,-4.51
2022-12-17T04:57:10.710Z,-4.47
2022-12-17T04:58:10.937Z,-4.34
2022-12-17T04:59:10.925Z,-4.43
2022-12-17T05:00:10.891Z,-4.39
2022-12-17T05:01:10.750Z,-4.29
2022-12-17T05:02:11.044Z,-4.3
2022-12-17T05:03:10.717Z,-4.34
2022-12-17T05:04:10.814Z,-4.27
2022-12-17T05:05:10.782Z,-4.33
2022-12-17T05:06:10.508Z,-4.34
2022-12-17T05:07:10.729Z,-4.33
2022-12-17T05:08:10.715Z,-4.32
2022-12-17T05:09:10.700Z,-4.3
2022-12-17T05:10:10.751Z,-4.32
2022-12-17T05:11:10.725Z,-4.3
2022-12-17T05:12:10.461Z,-4.34
2022-12-17T05:13:10.690Z,-4.32
2022-12-17T05:14:10.672Z,-4.33
2022-12-17T05:15:10.395Z,-4.29
2022-12-17T05:16:10.849Z,-4.37
2022-12-17T05:17:10.350Z,-4.44
2022-12-17T05:18:10.323Z,-4.41
2022-12-17T05:19:10.293Z,-4.32
2022-12-17T05:20:10.020Z,-4.3
2022-12-17T05:21:10.259Z,-4.32
2022-12-17T05:22:10.492Z,-4.34
2022-12-17T05:23:10.459Z,-4.32
2022-12-17T05:24:10.191Z,-4.32
2022-12-17T05:25:11.096Z,-4.29
2022-12-17T05:26:11.403Z,-4.25
2022-12-17T05:27:11.048Z,-4.29
2022-12-17T05:28:11.009Z,-4.32
2022-12-17T05:29:17.968Z,-4.27
2022-12-17T05:30:11.244Z,-4.19
2022-12-17T05:31:11.123Z,-4.33
2022-12-17T05:32:11.182Z,-4.19
2022-12-17T05:33:10.643Z,-4.32
2022-12-17T05:34:10.903Z,-4.25
2022-12-17T05:35:10.861Z,-4.32
2022-12-17T05:36:11.089Z,-4.26
2022-12-17T05:37:10.572Z,-4.34
2022-12-17T05:38:10.792Z,-4.23
2022-12-17T05:39:10.772Z,-4.27
2022-12-17T05:40:16.924Z,-4.26
2022-12-17T05:41:10.719Z,-4.3
2022-12-17T05:42:11.047Z,-4.32
2022-12-17T05:43:10.430Z,-4.32
2022-12-17T05:44:10.659Z,-4.3
2022-12-17T05:45:10.640Z,-4.33
2022-12-17T05:46:10.831Z,-4.27
2022-12-17T05:47:10.857Z,-4.37
2022-12-17T05:48:10.826Z,-4.34
2022-12-17T05:49:10.291Z,-4.33
2022-12-17T05:50:10.786Z,-4.33
2022-12-17T05:51:10.797Z,-4.27
2022-12-17T05:52:10.477Z,-4.33
2022-12-17T05:53:10.456Z,-4.33
2022-12-17T05:54:10.430Z,-4.33
2022-12-17T05:55:10.420Z,-4.37
2022-12-17T05:56:10.651Z,-4.37
2022-12-17T05:57:10.624Z,-4.37
2022-12-17T05:58:10.672Z,-4.36
2022-12-17T05:59:10.337Z,-4.36
2022-12-17T06:00:10.296Z,-4.37
2022-12-17T06:01:10.286Z,-4.36
2022-12-17T06:02:10.004Z,-4.33
2022-12-17T06:03:10.606Z,-4.36
2022-12-17T06:04:10.564Z,-4.43
2022-12-17T06:05:10.439Z,-4.37
2022-12-17T06:06:10.174Z,-4.33
2022-12-17T06:07:09.893Z,-4.34
2022-12-17T06:08:10.125Z,-4.36
2022-12-17T06:09:10.107Z,-4.41
2022-12-17T06:10:10.354Z,-4.43
2022-12-17T06:11:10.326Z,-4.5
2022-12-17T06:12:10.045Z,-4.5
2022-12-17T06:13:09.756Z,-4.39
2022-12-17T06:14:10.375Z,-4.39
2022-12-17T06:15:09.971Z,-4.43
2022-12-17T06:16:10.183Z,-4.37
2022-12-17T06:17:10.187Z,-4.29
2022-12-17T06:18:16.584Z,-4.33
2022-12-17T06:19:10.144Z,-4.34
2022-12-17T06:20:09.658Z,-4.36
2022-12-17T06:21:09.837Z,-4.34
2022-12-17T06:22:10.075Z,-4.44
2022-12-17T06:23:09.798Z,-4.51
2022-12-17T06:24:09.774Z,-4.39
2022-12-17T06:25:09.751Z,-4.34
2022-12-17T06:26:09.745Z,-4.36
2022-12-17T06:27:09.710Z,-4.37
2022-12-17T06:28:09.935Z,-4.34
2022-12-17T06:29:09.669Z,-4.27
2022-12-17T06:30:13.012Z,-4.25
2022-12-17T06:31:10.083Z,-4.36
2022-12-17T06:32:09.611Z,-4.32
2022-12-17T06:33:09.566Z,-4.26
2022-12-17T06:34:09.548Z,-4.23
2022-12-17T06:35:09.530Z,-4.22
2022-12-17T06:36:09.510Z,-4.23
2022-12-17T06:37:09.755Z,-4.29
2022-12-17T06:38:09.716Z,-4.19
2022-12-17T06:39:09.696Z,-4.33
2022-12-17T06:40:09.425Z,-4.19
2022-12-17T06:41:09.395Z,-4.23
2022-12-17T06:42:10.008Z,-4.18
2022-12-17T06:43:09.352Z,-4.26
2022-12-17T06:44:09.593Z,-4.22
2022-12-17T06:45:09.562Z,-4.27
2022-12-17T06:46:09.613Z,-4.32
2022-12-17T06:47:09.267Z,-4.15
2022-12-17T06:48:09.250Z,-4.27
2022-12-17T06:49:09.470Z,-4.3
2022-12-17T06:50:09.453Z,-4.26
2022-12-17T06:51:09.183Z,-4.19
2022-12-17T06:52:09.150Z,-4.27
2022-12-17T06:53:09.382Z,-4.22
2022-12-17T06:54:09.372Z,-4.29
2022-12-17T06:55:09.087Z,-4.09
2022-12-17T06:56:09.097Z,-4.25
2022-12-17T06:57:09.037Z,-4.25
2022-12-17T06:58:09.020Z,-4.08
2022-12-17T06:59:08.744Z,-4.29
2022-12-17T07:00:08.981Z,-4.16
2022-12-17T07:01:09.240Z,-4.26
2022-12-17T07:02:09.733Z,-4.32
2022-12-17T07:03:16.881Z,-4.26
2022-12-17T07:04:08.909Z,-4.19
2022-12-17T07:05:08.864Z,-4.22
2022-12-17T07:06:08.847Z,-4.22
2022-12-17T07:07:08.579Z,-4.25
2022-12-17T07:08:09.065Z,-4.22
2022-12-17T07:09:08.785Z,-4.26
2022-12-17T07:10:16.632Z,-4.3
2022-12-17T07:11:08.989Z,-4.23
2022-12-17T07:12:09.161Z,-4.19
2022-12-17T07:13:08.685Z,-4.16
2022-12-17T07:14:08.920Z,-4.15
2022-12-17T07:15:08.654Z,-4.26
2022-12-17T07:16:08.682Z,-4.18
2022-12-17T07:17:08.343Z,-4.15
2022-12-17T07:18:08.928Z,-4.14
2022-12-17T07:19:08.571Z,-4.19
2022-12-17T07:20:08.530Z,-4.06
2022-12-17T07:21:08.518Z,-4.18
2022-12-17T07:22:08.745Z,-4.15
2022-12-17T07:23:08.747Z,-4.09
2022-12-17T07:24:08.448Z,-4.11
2022-12-17T07:25:08.686Z,-4.12
2022-12-17T07:26:08.402Z,-4.08
2022-12-17T07:27:08.391Z,-4.04
2022-12-17T07:28:08.617Z,-4.12
2022-12-17T07:29:08.591Z,-4.15
2022-12-17T07:30:08.572Z,-4.06
2022-12-17T07:31:08.556Z,-3.97
2022-12-17T07:32:08.817Z,-4.04
2022-12-17T07:33:08.248Z,-4.01
2022-12-17T07:34:08.548Z,-4
2022-12-17T07:35:08.210Z,-4.01
2022-12-17T07:36:08.193Z,-3.96
2022-12-17T07:37:07.909Z,-3.98
2022-12-17T07:38:08.142Z,-3.97
2022-12-17T07:39:08.381Z,-3.91
2022-12-17T07:40:08.101Z,-3.94
2022-12-17T07:41:08.077Z,-3.96
2022-12-17T07:42:08.055Z,-4
2022-12-17T07:43:08.039Z,-3.91
2022-12-17T07:44:08.007Z,-3.94
2022-12-17T07:45:07.994Z,-3.87
2022-12-17T07:46:07.945Z,-3.98
2022-12-17T07:47:07.950Z,-3.87
2022-12-17T07:48:07.921Z,-3.91
2022-12-17T07:49:07.900Z,-3.87
2022-12-17T07:50:08.404Z,-3.93
2022-12-17T07:51:07.862Z,-3.88
2022-12-17T07:52:07.831Z,-3.9
2022-12-17T07:53:08.066Z,-3.9
2022-12-17T07:54:07.781Z,-3.88
2022-12-17T07:55:07.770Z,-3.86
2022-12-17T07:56:07.755Z,-3.83
2022-12-17T07:57:07.723Z,-3.91
2022-12-17T07:58:07.960Z,-3.83
2022-12-17T07:59:07.685Z,-3.8
2022-12-17T08:00:07.919Z,-3.88
2022-12-17T08:01:07.908Z,-3.8
2022-12-17T08:02:08.246Z,-3.79
2022-12-17T08:03:08.184Z,-3.8
2022-12-17T08:04:07.601Z,-3.76
2022-12-17T08:05:07.549Z,-3.8
2022-12-17T08:06:07.855Z,-3.63
2022-12-17T08:07:16.403Z,-3.61
2022-12-17T08:08:07.747Z,-3.63
2022-12-17T08:09:07.714Z,-3.61
2022-12-17T08:10:07.437Z,-3.69
2022-12-17T08:11:07.420Z,-3.69
2022-12-17T08:12:07.673Z,-3.6
2022-12-17T08:13:14.299Z,-3.63
2022-12-17T08:14:07.358Z,-3.51
2022-12-17T08:15:07.331Z,-3.48
2022-12-17T08:16:07.617Z,-3.53
2022-12-17T08:17:07.574Z,-3.45
2022-12-17T08:18:07.721Z,-3.42
2022-12-17T08:19:07.244Z,-3.38
2022-12-17T08:20:07.232Z,-3.33
2022-12-17T08:21:07.206Z,-3.38
2022-12-17T08:22:07.575Z,-3.33
2022-12-17T08:23:07.185Z,-3.3
2022-12-17T08:24:07.136Z,-3.29
2022-12-17T08:25:07.117Z,-3.3
2022-12-17T08:26:06.844Z,-3.32
2022-12-17T08:27:07.322Z,-3.33
2022-12-17T08:28:51.324Z,-3.32
2022-12-17T08:29:07.029Z,-3.29
2022-12-17T08:30:07.002Z,-3.32
2022-12-17T08:31:07.323Z,-3.29
2022-12-17T08:32:06.709Z,-3.3
2022-12-17T08:33:06.938Z,-3.3
2022-12-17T08:34:12.654Z,-3.24
2022-12-17T08:35:06.915Z,-3.32
2022-12-17T08:36:06.884Z,-3.21
2022-12-17T08:37:06.595Z,-3.24
2022-12-17T08:38:07.222Z,-3.18
2022-12-17T08:39:07.067Z,-3.21
2022-12-17T08:40:07.093Z,-3.15
2022-12-17T08:41:07.015Z,-3.06
2022-12-17T08:42:09.407Z,-3.06
2022-12-17T08:43:06.978Z,-2.97
2022-12-17T08:44:06.965Z,-2.97
2022-12-17T08:45:06.707Z,-2.93
2022-12-17T08:46:06.765Z,-2.83
2022-12-17T08:47:06.906Z,-2.85
2022-12-17T08:48:09.093Z,-2.86
2022-12-17T08:49:06.604Z,-2.91
2022-12-17T08:50:06.608Z,-2.85
2022-12-17T08:51:06.312Z,-2.85
2022-12-17T08:52:06.549Z,-2.75
2022-12-17T08:53:06.529Z,-2.76
2022-12-17T08:54:06.837Z,-2.85
2022-12-17T08:55:06.223Z,-2.61
2022-12-17T08:56:06.727Z,-2.62
2022-12-17T08:57:06.446Z,-2.58
2022-12-17T08:58:06.162Z,-2.49
2022-12-17T08:59:06.648Z,-2.44
2022-12-17T09:00:06.404Z,-2.4
2022-12-17T09:01:06.563Z,-2.4
2022-12-17T09:02:07.238Z,-2.24
2022-12-17T09:03:07.099Z,-2.25
2022-12-17T09:04:06.295Z,-2.17
2022-12-17T09:05:06.263Z,-2.07
2022-12-17T09:06:06.511Z,-2.06
2022-12-17T09:07:06.514Z,-2.09
2022-12-17T09:08:05.952Z,-2.06
2022-12-17T09:09:06.199Z,-2.1
2022-12-17T09:10:06.494Z,-1.97
2022-12-17T09:11:06.398Z,-2.06
2022-12-17T09:12:06.121Z,-1.96
2022-12-17T09:13:09.753Z,-2.06
2022-12-17T09:14:06.089Z,-2.2
2022-12-17T09:15:06.053Z,-2.21
2022-12-17T09:16:05.777Z,-2.18
2022-12-17T09:17:06.143Z,-2.17
2022-12-17T09:18:05.991Z,-2.18
2022-12-17T09:19:05.974Z,-2.34
2022-12-17T09:20:06.206Z,-2.28
2022-12-17T09:21:06.195Z,-2.25
2022-12-17T09:22:05.908Z,-2.14
2022-12-17T09:23:05.886Z,-2.07
2022-12-17T09:24:05.865Z,-1.86
2022-12-17T09:25:05.854Z,-1.81
2022-12-17T09:26:06.147Z,-1.73
2022-12-17T09:27:05.799Z,-1.6
2022-12-17T09:28:05.781Z,-1.64
2022-12-17T09:29:05.848Z,-1.6
2022-12-17T09:30:06.003Z,-1.49
2022-12-17T09:31:05.951Z,-1.43
2022-12-17T09:32:05.701Z,-1.5
2022-12-17T09:33:05.419Z,-1.5
2022-12-17T09:34:05.648Z,-1.42
2022-12-17T09:35:05.625Z,-1.38
2022-12-17T09:36:05.864Z,-1.42
2022-12-17T09:37:05.593Z,-1.37
2022-12-17T09:38:05.594Z,-1.37
2022-12-17T09:39:05.602Z,-1.31
2022-12-17T09:40:05.539Z,-1.22
2022-12-17T09:41:05.827Z,-1.27
2022-12-17T09:42:05.913Z,-1.22
2022-12-17T09:43:05.468Z,-1.07
2022-12-17T09:44:05.697Z,-1.22
2022-12-17T09:45:05.706Z,-1.27
2022-12-17T09:46:05.858Z,-1.22
2022-12-17T09:47:05.412Z,-1.32
2022-12-17T09:48:05.369Z,-1.28
2022-12-17T09:49:05.701Z,-1.09
2022-12-17T09:50:05.342Z,-1.1
2022-12-17T09:51:05.575Z,-1.1
2022-12-17T09:52:05.294Z,-1.19
2022-12-17T09:53:05.281Z,-1.27
2022-12-17T09:54:05.247Z,-1.38
2022-12-17T09:55:06.615Z,-1.46
2022-12-17T09:56:04.949Z,-1.49
2022-12-17T09:57:05.176Z,-1.46
2022-12-17T09:58:05.511Z,-1.48
2022-12-17T09:59:05.392Z,-1.5
2022-12-17T10:00:05.123Z,-1.43
2022-12-17T10:01:06.192Z,-1.48
2022-12-17T10:02:05.759Z,-1.45
2022-12-17T10:03:05.889Z,-1.32
2022-12-17T10:04:04.853Z,-1.32
2022-12-17T10:05:05.019Z,-1.25
2022-12-17T10:06:04.996Z,-1.17
2022-12-17T10:07:05.230Z,-1.25
2022-12-17T10:08:04.950Z,-1.21
2022-12-17T10:09:05.179Z,-1.17
2022-12-17T10:10:04.913Z,-1.21
2022-12-17T10:11:04.898Z,-1.17
2022-12-17T10:12:04.864Z,-1.28
2022-12-17T10:13:04.592Z,-1.25
2022-12-17T10:14:05.164Z,-1.21
2022-12-17T10:15:04.553Z,-1.21
2022-12-17T10:16:05.324Z,-1.25
2022-12-17T10:17:12.165Z,-1.42
2022-12-17T10:18:05.002Z,-1.43
2022-12-17T10:19:04.979Z,-1.34
2022-12-17T10:20:04.745Z,-1.43
2022-12-17T10:21:04.677Z,-1.48
2022-12-17T10:22:04.424Z,-1.6
2022-12-17T10:23:04.652Z,-1.55
2022-12-17T10:24:04.879Z,-1.63
2022-12-17T10:25:04.861Z,-1.58
2022-12-17T10:26:04.838Z,-1.64
2022-12-17T10:27:04.560Z,-1.61
2022-12-17T10:28:04.795Z,-1.61
2022-12-17T10:29:04.796Z,-1.58
2022-12-17T10:30:04.888Z,-1.7
2022-12-17T10:31:04.947Z,-1.68
2022-12-17T10:32:04.708Z,-1.73
2022-12-17T10:33:04.687Z,-1.73
2022-12-17T10:34:05.389Z,-1.78
2022-12-17T10:35:09.764Z,-1.86
2022-12-17T10:36:05.344Z,-1.88
2022-12-17T10:37:05.323Z,-2
2022-12-17T10:38:05.313Z,-1.94
2022-12-17T10:39:05.407Z,-2.14
2022-12-17T10:40:05.267Z,-2.03
2022-12-17T10:41:05.502Z,-2.07
2022-12-17T10:42:05.537Z,-2.06
2022-12-17T10:43:05.208Z,-2.07
2022-12-17T10:44:04.934Z,-2.06
2022-12-17T10:45:05.424Z,-2.09
2022-12-17T10:46:05.614Z,-2.05
2022-12-17T10:47:05.048Z,-2.09
2022-12-17T10:48:05.526Z,-2.1
2022-12-17T10:49:11.654Z,-2.1
2022-12-17T10:50:05.233Z,-2.1
2022-12-17T10:51:05.471Z,-2.15
2022-12-17T10:52:04.932Z,-2.09
2022-12-17T10:53:05.169Z,-2.03
2022-12-17T10:54:05.157Z,-2.14
2022-12-17T10:55:05.126Z,-1.92
2022-12-17T10:56:05.104Z,-1.99
2022-12-17T10:57:05.093Z,-1.96
2022-12-17T10:58:05.326Z,-2
2022-12-17T10:59:05.048Z,-1.91
2022-12-17T11:00:04.768Z,-1.86
2022-12-17T11:01:05.004Z,-1.85
2022-12-17T11:02:05.928Z,-1.79
2022-12-17T11:03:05.635Z,-1.81
2022-12-17T11:04:05.302Z,-1.71
2022-12-17T11:05:04.926Z,-1.66
2022-12-17T11:06:04.914Z,-1.74
2022-12-17T11:07:04.877Z,-1.61
2022-12-17T11:08:04.857Z,-1.63
2022-12-17T11:09:04.840Z,-1.63
2022-12-17T11:10:12.375Z,-1.6
2022-12-17T11:11:04.537Z,-1.56
2022-12-17T11:12:12.929Z,-1.46
2022-12-17T11:13:04.759Z,-1.58
2022-12-17T11:14:04.987Z,-1.64
2022-12-17T11:15:04.982Z,-1.61
2022-12-17T11:16:05.205Z,-1.55
2022-12-17T11:17:04.671Z,-1.6
2022-12-17T11:18:12.074Z,-1.6
2022-12-17T11:19:04.832Z,-1.61
2022-12-17T11:20:04.607Z,-1.6
2022-12-17T11:21:04.344Z,-1.61
2022-12-17T11:22:04.571Z,-1.66
2022-12-17T11:23:04.543Z,-1.68
2022-12-17T11:24:04.524Z,-1.71
2022-12-17T11:25:04.244Z,-1.71
2022-12-17T11:26:04.480Z,-1.71
2022-12-17T11:27:04.465Z,-1.88
2022-12-17T11:28:04.448Z,-1.81
2022-12-17T11:29:04.459Z,-1.89
2022-12-17T11:30:04.401Z,-1.88
2022-12-17T11:31:04.533Z,-1.82
2022-12-17T11:32:04.364Z,-1.96
2022-12-17T11:33:04.597Z,-1.92
2022-12-17T11:34:04.654Z,-1.84
2022-12-17T11:35:04.292Z,-1.91
2022-12-17T11:36:04.271Z,-1.91
2022-12-17T11:37:04.245Z,-1.97
2022-12-17T11:38:05.462Z,-1.91
2022-12-17T11:39:05.320Z,-1.99
2022-12-17T11:40:05.166Z,-2.02
2022-12-17T11:41:05.140Z,-2
2022-12-17T11:42:11.909Z,-1.96
2022-12-17T11:43:04.852Z,-2.05
2022-12-17T11:44:05.344Z,-1.99
2022-12-17T11:45:05.310Z,-1.97
2022-12-17T11:46:04.913Z,-2.05
2022-12-17T11:47:04.827Z,-2.06
2022-12-17T11:48:04.994Z,-2
2022-12-17T11:49:05.407Z,-2.14
2022-12-17T11:50:05.308Z,-2.09
2022-12-17T11:51:05.189Z,-2.21
2022-12-17T11:52:05.175Z,-2.18
2022-12-17T11:53:05.154Z,-2.17
2022-12-17T11:54:04.873Z,-2.2
2022-12-17T11:55:04.599Z,-2.2
2022-12-17T11:56:05.092Z,-2.2
2022-12-17T11:57:04.547Z,-2.15
2022-12-17T11:58:04.807Z,-2.09
2022-12-17T11:59:04.892Z,-2.09
2022-12-17T12:00:09.180Z,-2.02
2022-12-17T12:01:04.725Z,-2.15
2022-12-17T12:02:04.992Z,-2.07
2022-12-17T12:03:05.441Z,-2.09
2022-12-17T12:04:04.914Z,-2.07
2022-12-17T12:05:04.652Z,-2.09
2022-12-17T12:06:05.076Z,-2.12
2022-12-17T12:07:04.872Z,-1.99
2022-12-17T12:08:04.577Z,-2.12
2022-12-17T12:09:04.984Z,-2.1
2022-12-17T12:10:04.817Z,-2.15
2022-12-17T12:11:04.781Z,-2.09
2022-12-17T12:12:04.492Z,-2.06
2022-12-17T12:13:04.216Z,-2.14
2022-12-17T12:14:04.715Z,-2.1
2022-12-17T12:15:04.692Z,-2.12
2022-12-17T12:16:04.894Z,-2.18
2022-12-17T12:17:04.386Z,-2.14
2022-12-17T12:18:04.623Z,-2.18
2022-12-17T12:19:04.513Z,-2.15
2022-12-17T12:20:04.077Z,-2.17
2022-12-17T12:21:04.302Z,-2.17
2022-12-17T12:22:04.659Z,-2.23
2022-12-17T12:23:04.009Z,-2.23
2022-12-17T12:24:04.500Z,-2.23
2022-12-17T12:25:04.221Z,-2.23
2022-12-17T12:26:04.192Z,-2.24
2022-12-17T12:27:04.185Z,-2.23
2022-12-17T12:28:03.899Z,-2.21
2022-12-17T12:29:04.279Z,-2.21
2022-12-17T12:30:03.852Z,-2.21
2022-12-17T12:31:03.903Z,-2.27
2022-12-17T12:32:04.397Z,-2.24
2022-12-17T12:33:10.684Z,-2.24
2022-12-17T12:34:03.768Z,-2.25
2022-12-17T12:35:04.266Z,-2.24
2022-12-17T12:36:03.985Z,-2.28
2022-12-17T12:37:03.965Z,-2.27
2022-12-17T12:38:04.270Z,-2.24
2022-12-17T12:39:03.933Z,-2.3
2022-12-17T12:40:03.906Z,-2.28
2022-12-17T12:41:03.880Z,-2.27
2022-12-17T12:42:03.860Z,-2.36
2022-12-17T12:43:04.090Z,-2.18
2022-12-17T12:44:03.822Z,-2.44
2022-12-17T12:45:04.056Z,-2.4
2022-12-17T12:46:04.133Z,-2.36
2022-12-17T12:47:03.754Z,-2.28
2022-12-17T12:48:03.989Z,-2.37
2022-12-17T12:49:03.458Z,-2.28
2022-12-17T12:50:03.431Z,-2.25
2022-12-17T12:51:03.929Z,-2.36
2022-12-17T12:52:03.395Z,-2.36
2022-12-17T12:53:03.875Z,-2.54
2022-12-17T12:54:03.925Z,-2.47
2022-12-17T12:55:03.836Z,-2.5
2022-12-17T12:56:03.312Z,-2.49
2022-12-17T12:57:03.797Z,-2.47
2022-12-17T12:58:03.516Z,-2.47
2022-12-17T12:59:03.764Z,-2.46
2022-12-17T13:00:03.739Z,-2.5
2022-12-17T13:01:03.685Z,-2.47
2022-12-17T13:02:04.006Z,-2.46
2022-12-17T13:03:04.188Z,-2.44
2022-12-17T13:04:03.398Z,-2.49
2022-12-17T13:05:03.114Z,-2.49
2022-12-17T13:06:03.611Z,-2.46
2022-12-17T13:07:03.327Z,-2.47
2022-12-17T13:08:03.790Z,-2.53
2022-12-17T13:09:03.298Z,-2.62
2022-12-17T13:10:03.589Z,-2.62
2022-12-17T13:11:03.246Z,-2.61
2022-12-17T13:12:03.227Z,-2.6
2022-12-17T13:13:03.206Z,-2.58